Time;durP1;ratioP1;P1;durP2;ratioP2;P2;SDS_P1;SDS_P2;PMS_P1;PMS_P2;Temp;Humidity;BMP_temperature;BMP_pressure;BME280_temperature;BME280_humidity;BME280_pressure;Samples;Min_cycle;Max_cycle;Signal;HPM_P1;HPM_P2
2024/02/18 00:00:50;;;;;;;37.25;23.23;;;;;;;6.65;61.16;95635.06;4211872;28;20481;-67
2024/02/18 00:02:53;;;;;;;34.88;23.80;;;;;;;6.57;61.20;95627.81;4243993;27;20066;-68
2024/02/18 00:04:56;;;;;;;33.30;23.20;;;;;;;6.53;61.25;95635.00;4241816;27;20054;-67
2024/02/18 00:06:58;;;;;;;31.48;23.77;;;;;;;6.59;61.23;95625.09;4237267;27;20058;-66
2024/02/18 00:09:00;;;;;;;35.83;24.40;;;;;;;6.52;61.15;95630.75;4245558;27;20043;-66
2024/02/18 00:11:02;;;;;;;34.78;23.75;;;;;;;6.39;62.01;95629.13;4242241;27;20170;-68
2024/02/18 00:13:07;;;;;;;36.00;24.40;;;;;;;6.43;62.02;95618.41;4242032;27;20527;-67
2024/02/18 00:15:09;;;;;;;34.85;24.50;;;;;;;6.46;61.60;95622.56;4245731;27;20134;-66
2024/02/18 00:17:12;;;;;;;34.50;22.92;;;;;;;6.51;61.69;95625.66;4244139;27;20463;-66
2024/02/18 00:19:14;;;;;;;35.63;23.30;;;;;;;6.56;61.54;95629.59;4245161;27;20054;-68
2024/02/18 00:21:19;;;;;;;34.20;24.73;;;;;;;6.61;61.39;95625.81;4216298;28;20059;-67
2024/02/18 00:23:21;;;;;;;33.28;23.75;;;;;;;6.67;61.20;95623.59;4244201;27;20138;-68
2024/02/18 00:25:23;;;;;;;37.13;23.55;;;;;;;6.68;61.25;95633.06;4237167;27;20100;-68
2024/02/18 00:27:25;;;;;;;33.97;23.38;;;;;;;6.66;60.72;95626.31;4238700;27;20050;-66
2024/02/18 00:29:27;;;;;;;35.20;25.65;;;;;;;6.58;60.93;95624.25;4237176;27;20058;-70
2024/02/18 00:31:29;;;;;;;36.28;24.48;;;;;;;6.59;61.13;95623.31;4244961;27;20421;-68
2024/02/18 00:33:31;;;;;;;36.50;26.00;;;;;;;6.58;61.26;95626.84;4237173;27;20054;-68
2024/02/18 00:35:33;;;;;;;37.72;24.98;;;;;;;6.54;61.33;95622.84;4226220;28;20455;-66
2024/02/18 00:37:35;;;;;;;33.75;24.58;;;;;;;6.52;61.34;95628.16;4245234;27;20174;-66
2024/02/18 00:39:37;;;;;;;39.42;24.75;;;;;;;6.33;61.31;95620.00;4240934;27;20039;-66
2024/02/18 00:41:39;;;;;;;33.90;22.90;;;;;;;6.24;62.32;95624.09;4239966;27;20051;-65
2024/02/18 00:43:42;;;;;;;42.15;24.38;;;;;;;6.09;62.50;95625.19;4227075;28;20130;-66
2024/02/18 00:45:44;;;;;;;41.47;24.08;;;;;;;5.83;63.50;95634.78;4243637;27;20434;-66
2024/02/18 00:47:46;;;;;;;36.80;24.73;;;;;;;5.80;63.80;95627.22;4245290;27;20678;-68
2024/02/18 00:49:49;;;;;;;35.70;25.42;;;;;;;5.83;63.98;95633.03;4244517;27;20047;-67
2024/02/18 00:51:52;;;;;;;39.37;25.87;;;;;;;5.89;63.52;95631.75;4226922;27;20135;-66
2024/02/18 00:53:54;;;;;;;39.38;25.40;;;;;;;5.96;63.23;95630.44;4244636;27;20054;-66
2024/02/18 00:55:55;;;;;;;41.60;24.95;;;;;;;5.93;63.26;95625.41;4240856;27;20050;-67
2024/02/18 00:57:57;;;;;;;34.88;24.05;;;;;;;5.97;63.09;95629.50;4226614;28;20124;-66
2024/02/18 01:00:00;;;;;;;35.30;23.73;;;;;;;6.03;62.89;95623.03;4245475;27;20412;-67
2024/02/18 01:02:02;;;;;;;35.75;24.05;;;;;;;6.09;62.56;95630.41;4226704;28;20420;-68
2024/02/18 01:04:04;;;;;;;34.42;23.67;;;;;;;6.14;62.60;95631.72;4244854;27;20454;-69
2024/02/18 01:06:07;;;;;;;39.58;25.17;;;;;;;6.17;62.24;95632.44;4244759;27;20078;-68
2024/02/18 01:08:08;;;;;;;41.03;25.38;;;;;;;6.18;62.44;95621.94;4225054;28;20146;-67
2024/02/18 01:10:10;;;;;;;33.30;24.80;;;;;;;6.15;62.17;95620.41;4243144;27;20148;-69
2024/02/18 01:12:13;;;;;;;37.85;25.48;;;;;;;6.15;62.59;95623.00;4220404;28;20137;-68
2024/02/18 01:14:15;;;;;;;37.05;24.60;;;;;;;6.18;62.75;95626.31;4242356;27;20047;-68
2024/02/18 01:16:16;;;;;;;39.03;25.83;;;;;;;6.25;62.35;95622.34;4217183;28;20095;-68
2024/02/18 01:18:18;;;;;;;37.72;25.25;;;;;;;6.22;61.89;95615.59;4241450;27;20185;-68
2024/02/18 01:20:21;;;;;;;37.35;25.13;;;;;;;6.08;62.36;95618.31;4222380;28;20055;-68
2024/02/18 01:22:23;;;;;;;34.17;24.95;;;;;;;6.06;62.25;95618.41;4219629;28;20055;-68
2024/02/18 01:24:25;;;;;;;36.95;25.13;;;;;;;6.08;62.84;95619.16;4235429;27;20071;-70
2024/02/18 01:26:27;;;;;;;35.08;25.40;;;;;;;6.03;62.37;95612.63;4226166;28;20067;-70
2024/02/18 01:28:29;;;;;;;33.85;25.50;;;;;;;5.96;63.28;95609.63;4243604;27;20055;-69
2024/02/18 01:30:31;;;;;;;41.10;25.58;;;;;;;5.86;62.96;95605.97;4240537;27;20065;-69
2024/02/18 01:32:33;;;;;;;38.30;25.15;;;;;;;5.85;63.59;95606.91;4225656;28;20085;-70
2024/02/18 01:34:35;;;;;;;35.38;26.63;;;;;;;5.81;63.33;95613.25;4220149;28;20121;-68
2024/02/18 01:36:37;;;;;;;32.60;25.48;;;;;;;5.66;63.70;95605.59;4238312;27;20051;-69
2024/02/18 01:38:39;;;;;;;37.13;25.02;;;;;;;5.69;64.40;95600.19;4223590;28;20485;-68
2024/02/18 01:40:40;;;;;;;34.30;25.15;;;;;;;5.67;63.98;95603.84;4220413;28;20082;-68
2024/02/18 01:42:42;;;;;;;37.92;24.88;;;;;;;5.49;64.06;95611.16;4234433;27;20524;-69
2024/02/18 01:44:45;;;;;;;36.70;25.38;;;;;;;5.46;64.64;95600.94;4235420;27;20071;-68
2024/02/18 01:46:47;;;;;;;33.20;24.80;;;;;;;5.19;64.67;95601.91;4243427;28;20405;-67
2024/02/18 01:48:49;;;;;;;33.20;24.20;;;;;;;5.20;65.70;95600.94;4233972;28;20496;-67
2024/02/18 01:50:52;;;;;;;33.45;24.55;;;;;;;5.36;65.49;95612.94;4217835;28;20131;-67
2024/02/18 01:52:55;;;;;;;36.08;24.23;;;;;;;5.36;64.95;95610.34;4218787;28;20048;-66
2024/02/18 01:54:57;;;;;;;36.15;25.33;;;;;;;5.40;65.02;95607.41;4217780;28;20043;-66
2024/02/18 01:57:06;;;;;;;35.30;25.20;;;;;;;5.17;64.96;95610.75;4223785;28;20070;-70
2024/02/18 01:59:08;;;;;;;41.05;24.98;;;;;;;5.15;65.35;95616.03;4243157;28;20482;-67
2024/02/18 02:01:10;;;;;;;31.45;24.85;;;;;;;5.20;65.58;95616.53;4242592;28;20341;-67
2024/02/18 02:03:13;;;;;;;35.65;23.58;;;;;;;5.18;65.51;95618.41;4242728;28;20505;-68
2024/02/18 02:05:18;;;;;;;35.03;24.70;;;;;;;5.17;66.08;95616.75;4241745;27;20547;-69
2024/02/18 02:07:21;;;;;;;36.55;26.20;;;;;;;5.18;65.25;95625.38;4231774;28;20055;-66
2024/02/18 02:09:24;;;;;;;36.20;24.95;;;;;;;5.20;65.05;95624.34;4234163;28;20099;-68
2024/02/18 02:11:26;;;;;;;35.53;25.02;;;;;;;5.29;65.40;95625.47;4232962;28;20405;-68
2024/02/18 02:13:28;;;;;;;32.13;24.90;;;;;;;5.36;65.37;95631.13;4219689;28;20076;-66
2024/02/18 02:15:30;;;;;;;39.92;26.08;;;;;;;5.37;65.16;95623.19;4237919;28;20054;-68
2024/02/18 02:17:32;;;;;;;41.33;27.02;;;;;;;5.40;64.60;95625.59;4237572;28;20059;-67
2024/02/18 02:19:34;;;;;;;43.50;31.08;;;;;;;5.39;65.26;95623.91;4231595;28;20048;-66
2024/02/18 02:21:36;;;;;;;42.20;29.83;;;;;;;5.43;64.58;95634.94;4230359;28;20187;-67
2024/02/18 02:23:38;;;;;;;38.88;28.15;;;;;;;5.44;64.81;95634.00;4232844;28;20540;-69
2024/02/18 02:25:40;;;;;;;41.78;29.33;;;;;;;5.48;64.62;95643.25;4240713;28;20074;-68
2024/02/18 02:27:43;;;;;;;41.60;28.70;;;;;;;5.38;64.95;95637.88;4242361;28;20467;-67
2024/02/18 02:29:46;;;;;;;47.55;28.38;;;;;;;5.35;64.80;95648.44;4223605;28;20414;-67
2024/02/18 02:31:49;;;;;;;42.13;29.77;;;;;;;5.39;65.27;95651.69;4241329;28;20455;-68
2024/02/18 02:33:52;;;;;;;45.47;30.20;;;;;;;5.44;65.01;95644.41;4223045;28;20133;-68
2024/02/18 02:35:53;;;;;;;45.22;28.83;;;;;;;5.44;64.43;95644.41;4240553;28;20056;-67
2024/02/18 02:37:59;;;;;;;39.35;27.70;;;;;;;5.46;64.82;95650.31;4223229;28;20043;-66
2024/02/18 02:40:04;;;;;;;37.17;26.77;;;;;;;5.46;64.71;95632.97;4242148;28;20157;-66
2024/02/18 02:42:06;;;;;;;37.33;26.27;;;;;;;5.43;64.81;95648.78;4238370;28;20103;-68
2024/02/18 02:44:08;;;;;;;34.08;27.23;;;;;;;5.36;65.03;95644.94;4222962;28;20075;-69
2024/02/18 02:46:11;;;;;;;31.90;24.40;;;;;;;5.33;64.32;95647.72;4168634;27;1937759;-67
2024/02/18 02:48:13;;;;;;;43.10;27.13;;;;;;;5.36;65.01;95647.53;4237984;27;20104;-69
2024/02/18 02:50:15;;;;;;;40.13;26.38;;;;;;;5.37;64.41;95653.56;4241364;27;20050;-66
2024/02/18 02:52:17;;;;;;;36.92;26.55;;;;;;;5.38;64.82;95642.22;4242550;27;20055;-65
2024/02/18 02:54:19;;;;;;;36.78;25.63;;;;;;;5.25;64.95;95645.66;4237650;27;20043;-67
2024/02/18 02:56:21;;;;;;;44.78;28.50;;;;;;;5.28;64.81;95647.22;4237777;27;20128;-66
2024/02/18 02:58:23;;;;;;;41.28;27.42;;;;;;;5.34;64.88;95646.81;4231075;27;20126;-69
2024/02/18 03:00:25;;;;;;;35.70;26.20;;;;;;;5.39;64.86;95647.31;4240306;27;20471;-69
2024/02/18 03:02:27;;;;;;;36.60;27.48;;;;;;;5.46;64.95;95642.53;4218230;28;20478;-68
2024/02/18 03:04:29;;;;;;;42.88;28.35;;;;;;;5.25;64.44;95645.66;4243022;27;20073;-66
2024/02/18 03:06:31;;;;;;;39.05;27.30;;;;;;;5.18;65.20;95646.97;4242178;27;20484;-67
2024/02/18 03:08:33;;;;;;;32.63;24.30;;;;;;;5.20;64.51;95647.72;4243106;27;20062;-68
2024/02/18 03:10:38;;;;;;;36.00;25.30;;;;;;;5.25;64.42;95647.44;4241679;27;20435;-68
2024/02/18 03:12:40;;;;;;;43.92;28.10;;;;;;;4.96;64.72;95655.38;4243078;27;20085;-68
2024/02/18 03:14:42;;;;;;;32.03;24.35;;;;;;;4.93;65.30;95653.00;4239371;27;20043;-66
2024/02/18 03:16:44;;;;;;;29.67;22.52;;;;;;;5.01;65.03;95645.53;4237512;27;21294;-66
2024/02/18 03:18:46;;;;;;;38.78;26.65;;;;;;;5.14;64.37;95653.31;4240632;27;20047;-68
2024/02/18 03:20:49;;;;;;;32.78;22.92;;;;;;;5.12;63.77;95653.44;4242784;27;20533;-68
2024/02/18 03:22:51;;;;;;;27.15;20.10;;;;;;;5.19;63.16;95648.66;4217866;28;20519;-69
2024/02/18 03:24:53;;;;;;;25.80;18.95;;;;;;;5.19;61.15;95653.03;4238491;27;20099;-68
2024/02/18 03:26:55;;;;;;;26.48;20.40;;;;;;;5.26;60.77;95655.09;4240306;27;20047;-68
2024/02/18 03:28:57;;;;;;;27.00;20.20;;;;;;;5.14;60.64;95653.31;4236343;28;20607;-69
2024/02/18 03:30:59;;;;;;;32.97;21.25;;;;;;;5.02;61.15;95654.16;4237028;28;20049;-69
2024/02/18 03:33:01;;;;;;;28.73;20.80;;;;;;;4.93;60.37;95666.81;4233515;28;20142;-70
2024/02/18 03:35:04;;;;;;;24.55;18.23;;;;;;;4.85;60.50;95671.66;4239591;28;20101;-68
2024/02/18 03:37:06;;;;;;;24.70;18.42;;;;;;;4.72;61.30;95671.63;4200346;28;20123;-69
2024/02/18 03:39:08;;;;;;;25.52;18.75;;;;;;;4.66;60.62;95678.97;4242074;28;20130;-67
2024/02/18 03:41:10;;;;;;;26.63;19.02;;;;;;;4.66;60.40;95678.97;4237869;28;20226;-65
2024/02/18 03:43:12;;;;;;;27.02;18.48;;;;;;;4.69;60.16;95681.41;4240322;28;20131;-66
2024/02/18 03:45:14;;;;;;;25.40;17.02;;;;;;;4.79;59.81;95679.84;4242169;28;20493;-68
2024/02/18 03:47:17;;;;;;;22.88;16.00;;;;;;;4.90;59.20;95677.41;4240244;28;20100;-71
2024/02/18 03:49:19;;;;;;;21.73;16.17;;;;;;;4.91;58.89;95681.66;4239540;28;20434;-70
2024/02/18 03:51:21;;;;;;;21.63;14.60;;;;;;;5.03;58.30;95663.59;4220657;28;20816;-68
2024/02/18 03:53:23;;;;;;;19.05;15.27;;;;;;;4.97;58.41;95679.56;4232065;28;20488;-70
2024/02/18 03:55:26;;;;;;;22.48;14.85;;;;;;;5.05;57.94;95677.31;4234267;28;20054;-68
2024/02/18 03:57:28;;;;;;;23.20;15.90;;;;;;;5.10;57.95;95670.06;4242723;28;20047;-69
2024/02/18 03:59:30;;;;;;;21.83;15.40;;;;;;;5.27;57.30;95672.38;4241538;28;20081;-67
2024/02/18 04:01:32;;;;;;;22.30;16.80;;;;;;;5.49;57.49;95676.13;4238939;28;20147;-68
2024/02/18 04:03:34;;;;;;;22.52;15.95;;;;;;;5.62;56.39;95682.13;4216465;28;20147;-69
2024/02/18 04:05:36;;;;;;;20.90;15.60;;;;;;;5.60;56.22;95678.00;4233902;28;20665;-69
2024/02/18 04:07:39;;;;;;;21.65;16.23;;;;;;;5.67;56.55;95672.25;4240400;28;20562;-69
2024/02/18 04:09:40;;;;;;;26.63;15.88;;;;;;;5.70;56.70;95677.25;4242103;28;20402;-69
2024/02/18 04:11:42;;;;;;;26.15;15.63;;;;;;;5.86;56.73;95679.63;4223885;28;20157;-67
2024/02/18 04:13:44;;;;;;;20.35;15.50;;;;;;;5.97;55.84;95676.31;4218108;28;20052;-68
2024/02/18 04:15:46;;;;;;;25.08;15.77;;;;;;;6.05;55.66;95678.38;4242485;28;20065;-67
2024/02/18 04:17:49;;;;;;;22.65;17.13;;;;;;;6.03;55.76;95675.88;4235435;28;20251;-68
2024/02/18 04:19:51;;;;;;;23.15;16.83;;;;;;;5.92;55.79;95678.38;4237135;28;20043;-68
2024/02/18 04:21:53;;;;;;;24.52;18.02;;;;;;;5.96;56.78;95685.06;4236356;28;20472;-68
2024/02/18 04:23:55;;;;;;;21.20;17.33;;;;;;;6.07;56.26;95687.75;4241894;28;20062;-68
2024/02/18 04:25:57;;;;;;;22.02;17.23;;;;;;;6.12;56.23;95685.63;4235725;28;20051;-69
2024/02/18 04:28:00;;;;;;;24.77;17.40;;;;;;;6.15;56.07;95680.22;4231213;27;20096;-70
2024/02/18 04:30:02;;;;;;;22.50;17.07;;;;;;;6.19;56.14;95675.63;4218769;27;20359;-68
2024/02/18 04:32:05;;;;;;;20.48;16.52;;;;;;;6.33;56.05;95683.28;4227588;28;20354;-69
2024/02/18 04:34:07;;;;;;;25.15;18.88;;;;;;;6.39;55.80;95683.78;4219904;28;20047;-68
2024/02/18 04:36:11;;;;;;;26.15;16.95;;;;;;;6.43;55.99;95677.44;4209205;28;20075;-67
2024/02/18 04:38:13;;;;;;;23.65;17.27;;;;;;;6.48;55.59;95683.16;4244096;27;20118;-70
2024/02/18 04:40:15;;;;;;;22.02;16.83;;;;;;;6.55;55.44;95677.38;4242149;27;20119;-68
2024/02/18 04:42:17;;;;;;;24.00;17.80;;;;;;;6.56;55.64;95673.84;4241363;27;20048;-68
2024/02/18 04:44:19;;;;;;;23.05;18.27;;;;;;;6.64;55.18;95672.47;4242341;27;20047;-67
2024/02/18 04:46:21;;;;;;;24.50;18.17;;;;;;;6.65;55.32;95672.34;4242847;27;20104;-66
2024/02/18 04:48:23;;;;;;;23.45;18.27;;;;;;;6.59;54.95;95672.78;4241027;27;20515;-69
2024/02/18 04:50:26;;;;;;;26.27;18.88;;;;;;;6.48;55.71;95673.56;4242611;27;20055;-68
2024/02/18 04:52:28;;;;;;;24.67;19.30;;;;;;;6.42;55.85;95681.81;4236763;27;20051;-68
2024/02/18 04:54:30;;;;;;;23.60;18.38;;;;;;;6.42;55.89;95675.78;4232499;27;20534;-69
2024/02/18 04:56:31;;;;;;;24.50;19.17;;;;;;;6.17;56.21;95674.91;4244336;27;20551;-69
2024/02/18 04:58:33;;;;;;;25.80;19.10;;;;;;;5.87;57.06;95675.25;4240587;27;20062;-66
2024/02/18 05:00:35;;;;;;;27.63;18.73;;;;;;;5.65;57.60;95684.53;4237795;27;20062;-68
2024/02/18 05:02:37;;;;;;;29.35;18.75;;;;;;;5.41;58.56;95676.63;4244374;27;20104;-69
2024/02/18 05:04:39;;;;;;;30.45;19.50;;;;;;;5.37;58.67;95672.56;4242460;27;20475;-68
2024/02/18 05:06:48;;;;;;;29.70;18.88;;;;;;;5.37;58.54;95672.56;4239448;27;20443;-70
2024/02/18 05:08:51;;;;;;;25.50;18.23;;;;;;;5.23;59.63;95664.88;4242136;27;20495;-70
2024/02/18 05:10:54;;;;;;;24.95;19.70;;;;;;;5.23;59.08;95676.09;4240123;27;20038;-70
2024/02/18 05:12:56;;;;;;;29.23;20.58;;;;;;;5.08;59.47;95670.16;4243274;27;20130;-68
2024/02/18 05:14:58;;;;;;;26.27;20.35;;;;;;;5.08;59.88;95667.56;4243038;27;20043;-69
2024/02/18 05:17:00;;;;;;;28.58;19.58;;;;;;;5.01;59.99;95676.69;4237518;27;20050;-68
2024/02/18 05:19:03;;;;;;;29.95;19.88;;;;;;;4.96;59.80;95675.31;4239717;27;20078;-69
2024/02/18 05:21:05;;;;;;;28.42;20.33;;;;;;;5.03;60.28;95684.38;4242053;27;20043;-67
2024/02/18 05:23:07;;;;;;;26.15;19.75;;;;;;;5.04;59.69;95676.47;4227140;28;20147;-69
2024/02/18 05:25:09;;;;;;;27.95;20.63;;;;;;;5.06;60.00;95687.59;4243675;27;20111;-68
2024/02/18 05:27:11;;;;;;;28.92;20.95;;;;;;;5.06;60.02;95684.19;4244131;27;20134;-70
2024/02/18 05:29:13;;;;;;;33.33;20.17;;;;;;;5.08;59.67;95677.13;4223663;28;20051;-70
2024/02/18 05:31:23;;;;;;;28.80;20.17;;;;;;;5.10;59.89;95680.47;4213597;28;20135;-70
2024/02/18 05:33:25;;;;;;;27.92;19.80;;;;;;;5.27;59.60;95677.56;4231511;27;20051;-69
2024/02/18 05:35:27;;;;;;;22.90;18.33;;;;;;;5.50;59.21;95680.38;4244584;27;20039;-69
2024/02/18 05:37:29;;;;;;;29.58;20.67;;;;;;;5.53;58.30;95683.59;4241556;27;20629;-67
2024/02/18 05:39:31;;;;;;;25.92;18.95;;;;;;;5.63;58.14;95691.59;4240043;27;20135;-67
2024/02/18 05:41:33;;;;;;;29.05;18.75;;;;;;;5.59;58.26;95695.31;4243673;27;20043;-69
2024/02/18 05:43:35;;;;;;;25.67;18.85;;;;;;;5.53;58.39;95690.56;4237878;27;20063;-67
2024/02/18 05:45:37;;;;;;;28.45;19.30;;;;;;;5.53;58.61;95695.78;4240158;27;20209;-68
2024/02/18 05:47:39;;;;;;;26.33;19.15;;;;;;;5.63;58.80;95695.97;4225897;28;20448;-71
2024/02/18 05:49:41;;;;;;;24.52;19.08;;;;;;;5.75;57.83;95693.34;4231289;27;20047;-68
2024/02/18 05:51:51;;;;;;;25.08;18.83;;;;;;;5.70;58.28;95698.06;4228620;27;20055;-66
2024/02/18 05:53:53;;;;;;;29.42;20.77;;;;;;;5.69;58.30;95705.94;4221412;28;20671;-71
2024/02/18 05:55:55;;;;;;;33.60;21.33;;;;;;;5.75;57.83;95701.16;4230999;27;20071;-69
2024/02/18 05:57:57;;;;;;;33.15;21.15;;;;;;;5.62;58.49;95705.53;4233079;27;20036;-69
2024/02/18 05:59:59;;;;;;;30.35;21.65;;;;;;;5.82;58.44;95703.34;4218156;28;20471;-65
2024/02/18 06:02:01;;;;;;;33.53;21.38;;;;;;;5.95;57.90;95712.00;4240684;27;20044;-69
2024/02/18 06:04:04;;;;;;;37.50;24.35;;;;;;;6.00;57.36;95711.66;4233600;27;20047;-70
2024/02/18 06:06:06;;;;;;;31.40;24.05;;;;;;;6.03;57.84;95714.06;4241166;27;20200;-71
2024/02/18 06:08:08;;;;;;;35.42;25.27;;;;;;;6.21;57.79;95717.97;4241986;27;20443;-69
2024/02/18 06:10:10;;;;;;;37.05;25.73;;;;;;;6.34;57.05;95720.56;4241925;27;20054;-70
2024/02/18 06:12:14;;;;;;;42.65;27.23;;;;;;;6.21;56.96;95719.75;4243998;27;20054;-70
2024/02/18 06:14:15;;;;;;;35.22;26.27;;;;;;;6.32;57.16;95732.84;4215392;28;20047;-67
2024/02/18 06:16:17;;;;;;;30.77;24.80;;;;;;;6.30;56.76;95724.31;4241419;27;20061;-69
2024/02/18 06:18:19;;;;;;;34.95;24.88;;;;;;;6.43;56.80;95732.09;4243135;27;20079;-72
2024/02/18 06:20:21;;;;;;;38.42;24.58;;;;;;;6.60;56.80;95733.50;4217486;28;20139;-68
2024/02/18 06:22:23;;;;;;;29.48;23.15;;;;;;;6.78;56.16;95737.41;4243897;27;20062;-68
2024/02/18 06:24:27;;;;;;;32.45;23.30;;;;;;;6.83;55.63;95745.69;4243491;27;20103;-67
2024/02/18 06:26:30;;;;;;;29.90;22.88;;;;;;;6.86;55.71;95736.84;4242360;27;20047;-72
2024/02/18 06:28:32;;;;;;;31.38;22.27;;;;;;;6.91;56.01;95735.56;4234362;27;20383;-72
2024/02/18 06:30:38;;;;;;;31.83;23.35;;;;;;;6.72;56.14;95732.63;4226697;27;20043;-69
2024/02/18 06:32:41;;;;;;;34.58;23.70;;;;;;;6.62;56.63;95739.44;4227605;27;20051;-69
2024/02/18 06:34:43;;;;;;;28.42;21.90;;;;;;;6.44;57.12;95746.78;4221892;28;20056;-69
2024/02/18 06:36:45;;;;;;;34.47;24.08;;;;;;;6.46;57.28;95743.13;4243395;27;20031;-69
2024/02/18 06:38:47;;;;;;;33.88;23.73;;;;;;;6.44;57.54;95747.59;4243597;27;20074;-68
2024/02/18 06:40:49;;;;;;;32.60;23.02;;;;;;;6.39;57.95;95754.06;4242356;27;20494;-68
2024/02/18 06:42:51;;;;;;;32.67;22.67;;;;;;;6.51;57.79;95750.59;4243129;27;20047;-69
2024/02/18 06:44:53;;;;;;;31.40;21.75;;;;;;;6.70;57.14;95753.56;4243187;27;20047;-70
2024/02/18 06:46:55;;;;;;;33.55;21.85;;;;;;;6.93;56.50;95749.31;4238146;27;20044;-69
2024/02/18 06:48:57;;;;;;;30.67;21.75;;;;;;;7.07;55.31;95748.31;4239577;27;20487;-68
2024/02/18 06:50:59;;;;;;;32.38;21.77;;;;;;;7.22;55.09;95750.75;4239793;27;20418;-67
2024/02/18 06:53:01;;;;;;;37.45;24.05;;;;;;;7.36;55.44;95756.59;4226946;28;20396;-69
2024/02/18 06:55:03;;;;;;;34.78;22.75;;;;;;;7.50;54.69;95746.91;4241827;27;20050;-70
2024/02/18 06:57:05;;;;;;;35.83;22.90;;;;;;;7.53;54.52;95747.53;4233988;27;20162;-68
2024/02/18 06:59:07;;;;;;;32.45;22.63;;;;;;;7.61;54.48;95749.53;4222455;28;20135;-69
2024/02/18 07:01:09;;;;;;;32.08;22.42;;;;;;;7.66;54.58;95751.81;4238977;27;20064;-70
2024/02/18 07:03:11;;;;;;;32.67;23.23;;;;;;;7.68;55.25;95755.13;4238371;27;20522;-72
2024/02/18 07:05:13;;;;;;;34.58;24.52;;;;;;;7.72;57.32;95767.00;4242063;27;20058;-71
2024/02/18 07:07:15;;;;;;;39.15;25.92;;;;;;;7.65;57.39;95761.41;4243241;27;20134;-70
2024/02/18 07:09:17;;;;;;;35.13;26.55;;;;;;;7.58;58.70;95755.84;4241523;27;20208;-73
2024/02/18 07:11:21;;;;;;;38.90;26.23;;;;;;;7.59;58.61;95756.66;4242159;27;20077;-70
2024/02/18 07:13:23;;;;;;;33.65;25.02;;;;;;;7.56;59.16;95764.72;4243713;27;20035;-70
2024/02/18 07:15:24;;;;;;;35.75;26.63;;;;;;;7.59;59.61;95762.72;4242792;27;20370;-70
2024/02/18 07:17:26;;;;;;;38.47;25.92;;;;;;;7.59;59.77;95767.09;4239216;27;20098;-69
2024/02/18 07:19:28;;;;;;;40.15;26.60;;;;;;;7.68;59.45;95784.69;4239073;27;20063;-67
2024/02/18 07:21:30;;;;;;;34.35;25.70;;;;;;;7.52;60.41;95765.88;4222058;28;20400;-68
2024/02/18 07:23:32;;;;;;;34.78;26.77;;;;;;;7.63;60.84;95770.31;4222398;28;20047;-70
2024/02/18 07:25:34;;;;;;;37.97;27.42;;;;;;;7.66;60.62;95776.13;4242302;27;20055;-70
2024/02/18 07:27:36;;;;;;;34.13;27.27;;;;;;;7.65;61.51;95766.63;4240533;27;20078;-70
2024/02/18 07:29:38;;;;;;;36.15;28.10;;;;;;;7.37;62.59;95763.47;4238810;27;20051;-71
2024/02/18 07:31:40;;;;;;;37.55;28.42;;;;;;;7.39;62.57;95772.00;4243181;28;20130;-71
2024/02/18 07:33:42;;;;;;;37.45;29.00;;;;;;;7.44;61.94;95763.84;4224523;28;20535;-70
2024/02/18 07:35:44;;;;;;;34.55;27.48;;;;;;;7.43;62.08;95769.19;4241567;28;20481;-69
2024/02/18 07:37:46;;;;;;;37.78;27.50;;;;;;;7.38;62.02;95772.13;4232639;28;20381;-68
2024/02/18 07:39:48;;;;;;;37.20;27.90;;;;;;;7.44;61.56;95773.44;4224327;28;20067;-71
2024/02/18 07:41:51;;;;;;;39.97;28.42;;;;;;;7.38;61.47;95766.94;4216076;28;20060;-68
2024/02/18 07:43:53;;;;;;;42.55;29.05;;;;;;;7.24;62.41;95774.91;4238608;28;20057;-67
2024/02/18 07:45:54;;;;;;;39.83;28.02;;;;;;;7.13;62.62;95775.69;4222451;28;20047;-69
2024/02/18 07:47:56;;;;;;;37.75;28.02;;;;;;;7.08;63.05;95781.25;4235114;28;20115;-68
2024/02/18 07:49:59;;;;;;;34.45;27.65;;;;;;;7.03;63.27;95775.53;4242680;28;20054;-66
2024/02/18 07:52:01;;;;;;;47.90;29.90;;;;;;;6.88;64.33;95776.63;4240213;28;20552;-69
2024/02/18 07:54:03;;;;;;;38.22;28.38;;;;;;;6.98;63.84;95778.47;4240644;28;20573;-70
2024/02/18 07:56:05;;;;;;;37.50;29.73;;;;;;;7.11;63.78;95767.97;4242122;28;20100;-69
2024/02/18 07:58:07;;;;;;;38.72;29.50;;;;;;;7.13;63.46;95766.09;4240306;28;20047;-69
2024/02/18 08:00:09;;;;;;;38.90;29.58;;;;;;;7.12;63.69;95764.44;4224554;28;20736;-69
2024/02/18 08:02:12;;;;;;;37.25;27.40;;;;;;;7.20;63.29;95761.25;4235992;28;20469;-68
2024/02/18 08:04:14;;;;;;;38.40;28.40;;;;;;;7.28;62.83;95768.53;4226153;27;20058;-70
2024/02/18 08:06:16;;;;;;;36.88;27.67;;;;;;;7.27;62.24;95762.50;4209167;28;20064;-71
2024/02/18 08:08:18;;;;;;;38.15;28.02;;;;;;;7.38;62.46;95766.94;4242808;27;20054;-68
2024/02/18 08:10:20;;;;;;;40.70;28.23;;;;;;;7.36;63.23;95774.03;4240277;27;20488;-71
2024/02/18 08:12:22;;;;;;;38.83;29.02;;;;;;;7.38;63.25;95764.31;4234637;27;20514;-70
2024/02/18 08:14:24;;;;;;;42.00;28.33;;;;;;;7.38;63.44;95778.19;4245744;27;20050;-70
2024/02/18 08:16:28;;;;;;;40.15;29.20;;;;;;;7.31;63.68;95774.38;4245226;27;20467;-68
2024/02/18 08:18:30;;;;;;;40.30;29.50;;;;;;;7.40;63.74;95778.06;4230259;27;20384;-70
2024/02/18 08:20:33;;;;;;;38.15;29.77;;;;;;;7.35;63.71;95775.78;4243807;27;20555;-67
2024/02/18 08:22:38;;;;;;;38.47;28.52;;;;;;;7.39;63.75;95779.81;4246085;27;20108;-67
2024/02/18 08:24:42;;;;;;;41.55;28.35;;;;;;;7.45;63.78;95772.50;4242259;27;20089;-69
2024/02/18 08:26:44;;;;;;;39.95;29.33;;;;;;;7.50;63.99;95783.41;4245076;27;20523;-68
2024/02/18 08:28:46;;;;;;;40.08;27.52;;;;;;;7.48;63.94;95782.69;4220804;28;20310;-71
2024/02/18 08:30:48;;;;;;;42.53;28.65;;;;;;;7.43;64.26;95792.66;4239049;27;20130;-70
2024/02/18 08:32:51;;;;;;;40.42;29.23;;;;;;;7.43;64.56;95779.63;4244350;27;20043;-69
2024/02/18 08:34:53;;;;;;;42.60;28.23;;;;;;;7.51;64.15;95777.28;4244927;27;20073;-69
2024/02/18 08:36:56;;;;;;;41.85;29.00;;;;;;;7.41;64.71;95794.53;4224875;28;20039;-73
2024/02/18 08:38:58;;;;;;;45.90;30.40;;;;;;;7.41;65.52;95784.09;4240161;27;20122;-67
2024/02/18 08:41:01;;;;;;;43.13;32.40;;;;;;;7.42;65.64;95783.16;4244504;27;20054;-71
2024/02/18 08:43:03;;;;;;;49.90;33.40;;;;;;;7.06;67.17;95803.16;4245103;27;20043;-70
2024/02/18 08:45:05;;;;;;;45.92;34.10;;;;;;;7.02;67.52;95789.50;4245192;27;20054;-69
2024/02/18 08:47:07;;;;;;;47.83;33.20;;;;;;;7.00;67.68;95787.97;4243542;27;20061;-69
2024/02/18 08:49:09;;;;;;;48.03;34.67;;;;;;;6.88;68.13;95797.47;4243593;27;20108;-68
2024/02/18 08:51:12;;;;;;;50.13;35.80;;;;;;;6.90;68.24;95796.41;4215566;28;20039;-71
2024/02/18 08:53:14;;;;;;;46.20;34.00;;;;;;;7.02;68.28;95793.88;4245635;27;20125;-69
2024/02/18 08:55:15;;;;;;;53.00;36.42;;;;;;;6.88;68.51;95797.47;4244985;27;20054;-70
2024/02/18 08:57:18;;;;;;;50.45;36.05;;;;;;;6.69;69.53;95795.31;4242436;27;20058;-72
2024/02/18 08:59:20;;;;;;;55.28;40.15;;;;;;;6.71;70.32;95801.25;4238930;27;20086;-73
2024/02/18 09:01:22;;;;;;;62.90;40.25;;;;;;;6.70;70.46;95805.66;4229047;27;20078;-71
2024/02/18 09:03:23;;;;;;;54.17;34.60;;;;;;;6.84;69.89;95794.25;4244177;27;20099;-71
2024/02/18 09:05:28;;;;;;;52.47;36.35;;;;;;;6.95;69.91;95803.91;4245307;27;20129;-70
2024/02/18 09:07:31;;;;;;;53.20;36.80;;;;;;;7.07;69.88;95804.81;4245220;27;20134;-72
2024/02/18 09:09:33;;;;;;;53.22;39.47;;;;;;;7.04;70.14;95807.63;4239338;27;20522;-70
2024/02/18 09:11:36;;;;;;;58.33;41.45;;;;;;;7.01;70.79;95803.44;4242402;27;20492;-69
2024/02/18 09:13:38;;;;;;;61.33;43.40;;;;;;;6.98;70.71;95808.91;4223057;27;20058;-71
2024/02/18 09:15:41;;;;;;;53.10;38.95;;;;;;;7.14;70.50;95806.00;4244663;27;20323;-70
2024/02/18 09:17:43;;;;;;;64.88;43.03;;;;;;;7.13;70.72;95813.00;4243503;27;20522;-72
2024/02/18 09:19:46;;;;;;;58.58;40.97;;;;;;;7.23;71.03;95807.97;4219121;27;20052;-70
2024/02/18 09:21:49;;;;;;;66.90;46.10;;;;;;;7.11;71.35;95803.63;4244506;27;20039;-71
2024/02/18 09:23:51;;;;;;;57.95;41.83;;;;;;;7.17;71.16;95798.81;4233478;27;20044;-72
2024/02/18 09:25:52;;;;;;;57.90;41.67;;;;;;;7.15;71.49;95805.91;4234204;27;20516;-69
2024/02/18 09:27:54;;;;;;;59.00;40.20;;;;;;;7.16;70.91;95806.72;4243640;27;20047;-69